Time;durP1;ratioP1;P1;durP2;ratioP2;P2;SDS_P1;SDS_P2;PMS_P1;PMS_P2;Temp;Humidity;BMP_temperature;BMP_pressure;BME280_temperature;BME280_humidity;BME280_pressure;Samples;Min_cycle;Max_cycle;Signal;HPM_P1;HPM_P2
2024/02/14 00:00:56;;;;;;;17.70;13.70;;;;;;;7.87;100.00;101865.50;105178;1259;65625;-57
2024/02/14 00:03:24;;;;;;;16.70;14.30;;;;;;;7.87;100.00;101867.29;108491;1256;71797;-57
2024/02/14 00:05:52;;;;;;;14.60;13.00;;;;;;;7.87;100.00;101875.15;105013;1257;60662;-56
2024/02/14 00:08:20;;;;;;;14.50;12.90;;;;;;;7.86;100.00;101878.02;105453;1255;60559;-57
2024/02/14 00:10:48;;;;;;;16.70;14.00;;;;;;;7.86;100.00;101877.48;105402;1254;72446;-58
2024/02/14 00:13:18;;;;;;;16.10;13.00;;;;;;;7.86;100.00;101878.20;106346;1259;67648;-58
2024/02/14 00:15:46;;;;;;;16.20;13.10;;;;;;;7.87;100.00;101886.23;105257;1260;71378;-57
2024/02/14 00:18:15;;;;;;;19.20;14.70;;;;;;;7.88;100.00;101887.85;106741;1258;60664;-57
2024/02/14 00:20:43;;;;;;;16.40;13.10;;;;;;;7.89;100.00;101891.24;105306;1258;60549;-57
2024/02/14 00:23:11;;;;;;;17.80;14.20;;;;;;;7.89;100.00;101893.92;105384;1257;74311;-57
2024/02/14 00:25:38;;;;;;;19.70;14.70;;;;;;;7.91;100.00;101894.81;104899;1258;67136;-58
2024/02/14 00:28:06;;;;;;;21.60;13.60;;;;;;;7.92;100.00;101896.40;104955;1254;71167;-56
2024/02/14 00:30:34;;;;;;;20.90;15.50;;;;;;;7.92;100.00;101895.68;104907;1259;60569;-57
2024/02/14 00:33:01;;;;;;;18.20;15.00;;;;;;;7.92;100.00;101897.83;104882;1254;60482;-58
2024/02/14 00:35:29;;;;;;;16.60;13.70;;;;;;;7.93;100.00;101901.40;105209;1260;72729;-57
2024/02/14 00:37:57;;;;;;;15.90;13.00;;;;;;;7.91;100.00;101900.70;105279;1254;67079;-57
2024/02/14 00:40:24;;;;;;;16.60;13.50;;;;;;;7.89;100.00;101896.42;105233;1260;72769;-58
2024/02/14 00:42:51;;;;;;;18.40;14.10;;;;;;;7.87;100.00;101894.98;105043;1263;60478;-58
2024/02/14 00:45:19;;;;;;;14.40;12.90;;;;;;;7.86;100.00;101890.70;105159;1255;60553;-56
2024/02/14 00:47:46;;;;;;;15.00;11.90;;;;;;;7.84;100.00;101892.85;105286;1260;73912;-57
2024/02/14 00:50:14;;;;;;;17.00;12.60;;;;;;;7.82;100.00;101883.22;105171;1260;66818;-58
2024/02/14 00:52:42;;;;;;;12.70;11.10;;;;;;;7.81;100.00;101885.20;107514;1258;72762;-58
2024/02/14 00:55:10;;;;;;;11.90;10.30;;;;;;;7.79;100.00;101886.62;105225;1260;61616;-56
2024/02/14 00:57:38;;;;;;;11.60;9.90;;;;;;;7.78;100.00;101885.90;104993;1260;60453;-58
2024/02/14 01:00:06;;;;;;;11.70;10.30;;;;;;;7.77;100.00;101883.58;104947;1259;71615;-57
2024/02/14 01:02:34;;;;;;;12.30;8.80;;;;;;;7.77;100.00;101883.77;105729;1254;66309;-56
2024/02/14 01:05:02;;;;;;;11.50;8.80;;;;;;;7.76;100.00;101879.30;107656;1259;73167;-58
2024/02/14 01:07:30;;;;;;;11.00;8.90;;;;;;;7.75;100.00;101873.92;109033;1253;60558;-59
2024/02/14 01:09:57;;;;;;;9.50;8.50;;;;;;;7.76;100.00;101872.69;109068;1259;59102;-59
2024/02/14 01:12:24;;;;;;;8.70;7.90;;;;;;;7.74;100.00;101862.48;109148;1259;73992;-59
2024/02/14 01:14:52;;;;;;;8.30;7.40;;;;;;;7.72;100.00;101858.05;109038;1254;65925;-59
2024/02/14 01:17:21;;;;;;;5.90;5.50;;;;;;;7.69;100.00;101856.62;109047;1256;73266;-59
2024/02/14 01:19:49;;;;;;;7.80;7.10;;;;;;;7.66;100.00;101850.73;109155;1254;61727;-59
2024/02/14 01:22:16;;;;;;;5.50;5.00;;;;;;;7.64;100.00;101844.50;109054;1254;58505;-59
2024/02/14 01:24:44;;;;;;;4.70;4.40;;;;;;;7.62;100.00;101839.67;109042;1254;73855;-60
2024/02/14 01:27:12;;;;;;;4.40;4.10;;;;;;;7.60;100.00;101838.24;109067;1254;65778;-59
2024/02/14 01:29:39;;;;;;;5.00;4.60;;;;;;;7.57;100.00;101833.97;108980;1257;72905;-60
2024/02/14 01:32:06;;;;;;;4.80;4.30;;;;;;;7.53;100.00;101831.84;108874;1259;60407;-59
2024/02/14 01:34:34;;;;;;;5.20;4.80;;;;;;;7.51;100.00;101833.09;109040;1254;62316;-59
2024/02/14 01:37:01;;;;;;;4.50;3.60;;;;;;;7.50;100.00;101829.86;108979;1254;73897;-59
2024/02/14 01:39:29;;;;;;;4.70;3.70;;;;;;;7.48;100.00;101823.28;109157;1260;65994;-59
2024/02/14 01:41:56;;;;;;;4.50;4.10;;;;;;;7.47;100.00;101822.23;109003;1260;72772;-59
2024/02/14 01:44:23;;;;;;;4.70;3.80;;;;;;;7.47;100.00;101821.50;109088;1254;60353;-59
2024/02/14 01:46:52;;;;;;;4.00;3.70;;;;;;;7.47;100.00;101820.96;109059;1254;59258;-59
2024/02/14 01:49:20;;;;;;;5.80;3.90;;;;;;;7.46;100.00;101824.71;109048;1254;73331;-59
2024/02/14 01:51:47;;;;;;;4.30;3.90;;;;;;;7.45;100.00;101824.36;106587;1262;65805;-58
2024/02/14 01:54:14;;;;;;;5.10;4.70;;;;;;;7.45;100.00;101822.75;104992;1260;72705;-57
2024/02/14 01:56:42;;;;;;;4.70;3.60;;;;;;;7.45;100.00;101817.57;104701;1264;61693;-57
2024/02/14 01:59:10;;;;;;;3.60;3.40;;;;;;;7.47;100.00;101815.96;106006;1260;60481;-58
2024/02/14 02:01:37;;;;;;;3.90;3.50;;;;;;;7.48;100.00;101816.31;105144;1260;73855;-56
2024/02/14 02:04:05;;;;;;;3.50;3.30;;;;;;;7.48;100.00;101817.57;104994;1259;66543;-57
2024/02/14 02:06:32;;;;;;;3.50;3.20;;;;;;;7.46;100.00;101812.93;104942;1260;73249;-57
2024/02/14 02:09:00;;;;;;;6.70;4.70;;;;;;;7.43;100.00;101807.92;105112;1254;62409;-58
2024/02/14 02:11:28;;;;;;;5.40;3.70;;;;;;;7.37;100.00;101802.59;106080;1258;60453;-56
2024/02/14 02:13:55;;;;;;;3.30;3.00;;;;;;;7.31;100.00;101800.98;105064;1260;72613;-60
2024/02/14 02:16:22;;;;;;;5.00;3.40;;;;;;;7.25;100.00;101796.00;105023;1260;64936;-63
2024/02/14 02:18:50;;;;;;;3.60;3.30;;;;;;;7.22;100.00;101786.55;104996;1254;73042;-59
2024/02/14 02:21:22;;;;;;;2.20;2.00;;;;;;;7.19;100.00;101785.30;104934;1260;60596;-62
2024/02/14 02:23:50;;;;;;;2.70;2.30;;;;;;;7.18;100.00;101792.09;105098;1254;60623;-61
2024/02/14 02:26:18;;;;;;;2.40;1.90;;;;;;;7.17;100.00;101786.20;105003;1260;74314;-60
2024/02/14 02:28:45;;;;;;;1.90;1.60;;;;;;;7.16;100.00;101788.52;104936;1254;65790;-59
2024/02/14 02:31:13;;;;;;;2.30;1.30;;;;;;;7.15;100.00;101787.80;104985;1258;72628;-61
2024/02/14 02:33:40;;;;;;;1.50;1.40;;;;;;;7.14;100.00;101787.64;104912;1260;62220;-60
2024/02/14 02:36:09;;;;;;;1.50;1.30;;;;;;;7.13;100.00;101786.76;105176;1260;59996;-54
2024/02/14 02:38:37;;;;;;;1.40;1.30;;;;;;;7.11;100.00;101789.26;105085;1254;74207;-53
2024/02/14 02:41:08;;;;;;;1.90;1.60;;;;;;;7.09;100.00;101789.60;105369;1259;65888;-52
2024/02/14 02:43:36;;;;;;;1.70;1.50;;;;;;;7.07;100.00;101788.36;105189;1260;71526;-56
2024/02/14 02:46:03;;;;;;;1.20;1.10;;;;;;;7.04;100.00;101787.48;105224;1259;63955;-54
2024/02/14 02:48:31;;;;;;;1.10;1.00;;;;;;;7.01;100.00;101782.84;105418;1254;61004;-53
2024/02/14 02:51:00;;;;;;;3.40;1.40;;;;;;;6.99;100.00;101781.59;105388;1260;74842;-55
2024/02/14 02:53:27;;;;;;;1.90;1.50;;;;;;;6.98;100.00;101783.37;105315;1260;66918;-54
2024/02/14 02:55:57;;;;;;;1.30;1.20;;;;;;;6.99;100.00;101782.83;105345;1257;71505;-53
2024/02/14 02:58:26;;;;;;;1.30;1.20;;;;;;;6.99;100.00;101791.40;105354;1260;60600;-54
2024/02/14 03:00:55;;;;;;;1.80;1.10;;;;;;;6.98;100.00;101783.91;105349;1254;61210;-54
2024/02/14 03:03:27;;;;;;;1.70;1.40;;;;;;;6.95;100.00;101784.99;105332;1259;71660;-54
2024/02/14 03:05:56;;;;;;;1.20;1.10;;;;;;;6.96;100.00;101788.75;105204;1257;64890;-54
2024/02/14 03:08:25;;;;;;;1.60;1.20;;;;;;;6.97;100.00;101786.06;105363;1258;72777;-53
2024/02/14 03:10:54;;;;;;;1.20;1.10;;;;;;;6.96;100.00;101782.33;105409;1254;62005;-52
2024/02/14 03:13:21;;;;;;;3.70;1.60;;;;;;;6.96;100.00;101779.83;105238;1254;60546;-57
2024/02/14 03:15:49;;;;;;;1.50;1.40;;;;;;;6.96;100.00;101776.97;105210;1259;73868;-54
2024/02/14 03:18:17;;;;;;;2.40;1.40;;;;;;;6.95;100.00;101776.61;105252;1260;66694;-53
2024/02/14 03:20:49;;;;;;;1.20;1.10;;;;;;;6.93;100.00;101778.73;105295;1260;70433;-55
2024/02/14 03:23:22;;;;;;;4.20;1.80;;;;;;;6.89;100.00;101782.50;105317;1260;62109;-55
2024/02/14 03:25:52;;;;;;;2.10;1.60;;;;;;;6.87;100.00;101785.90;105131;1254;60009;-54
2024/02/14 03:28:20;;;;;;;2.20;1.40;;;;;;;6.84;100.00;101773.58;105219;1260;74134;-56
2024/02/14 03:30:47;;;;;;;1.90;1.70;;;;;;;6.80;100.00;101769.30;105291;1255;66857;-55
2024/02/14 03:33:15;;;;;;;1.80;1.40;;;;;;;6.78;100.00;101766.45;105019;1264;71467;-53
2024/02/14 03:35:43;;;;;;;3.50;1.40;;;;;;;6.78;100.00;101766.81;105313;1254;158773;-51
2024/02/14 03:39:56;;;;;;;11.00;2.20;;;;;;;6.78;100.00;101818.91;102455;1291;600822;-53
2024/02/14 03:42:26;;;;;;;1.60;1.40;;;;;;;6.75;100.00;101966.65;104595;1266;60460;-54
2024/02/14 03:45:00;;;;;;;2.80;1.30;;;;;;;6.72;100.00;101936.67;104287;1271;59320;-53
2024/02/14 03:47:29;;;;;;;1.20;1.10;;;;;;;6.70;100.00;101924.55;104526;1266;70710;-55
2024/02/14 03:49:56;;;;;;;1.10;1.00;;;;;;;6.70;100.00;101907.59;104318;1266;66106;-54
2024/02/14 03:52:24;;;;;;;2.10;0.70;;;;;;;6.71;100.00;101892.61;104173;1268;187933;-52
2024/02/14 03:54:52;;;;;;;0.70;0.70;;;;;;;6.70;100.00;101880.83;104539;1266;59704;-54
2024/02/14 03:57:20;;;;;;;0.70;0.70;;;;;;;6.69;100.00;101875.11;104654;1264;59017;-53
2024/02/14 03:59:47;;;;;;;0.50;0.50;;;;;;;6.67;100.00;101869.75;104387;1264;70786;-53
2024/02/14 04:02:17;;;;;;;0.70;0.70;;;;;;;6.63;100.00;101863.33;105381;1254;66278;-56
2024/02/14 04:04:46;;;;;;;2.10;0.60;;;;;;;6.58;100.00;101857.42;105273;1253;72143;-52
2024/02/14 04:07:14;;;;;;;0.60;0.60;;;;;;;6.53;100.00;101843.16;105236;1254;63250;-52
2024/02/14 04:09:41;;;;;;;1.20;0.70;;;;;;;6.49;100.00;101839.40;105237;1253;59696;-60
2024/02/14 04:12:10;;;;;;;0.50;0.50;;;;;;;6.42;100.00;101832.98;105114;1257;70976;-54
2024/02/14 04:14:37;;;;;;;0.60;0.60;;;;;;;6.37;100.00;101822.45;105433;1254;66039;-56
2024/02/14 04:17:07;;;;;;;0.70;0.60;;;;;;;6.34;100.00;101819.41;105165;1253;71859;-52
2024/02/14 04:19:35;;;;;;;0.70;0.70;;;;;;;6.30;100.00;101821.00;105233;1255;59677;-52
2024/02/14 04:22:17;;;;;;;0.70;0.60;;;;;;;6.28;100.00;101830.45;105327;1253;61624;-54
2024/02/14 04:24:44;;;;;;;0.70;0.50;;;;;;;6.26;100.00;101816.36;104994;1256;73267;-58
2024/02/14 04:27:12;;;;;;;2.00;0.50;;;;;;;6.23;100.00;101807.97;105162;1253;64653;-54
2024/02/14 04:29:39;;;;;;;0.60;0.50;;;;;;;6.18;100.00;101803.52;104946;1258;72798;-55
2024/02/14 04:32:07;;;;;;;0.50;0.50;;;;;;;6.15;100.00;101803.84;105121;1254;60495;-55
2024/02/14 04:34:38;;;;;;;0.80;0.60;;;;;;;6.13;100.00;101801.16;105048;1253;59208;-53
2024/02/14 04:37:18;;;;;;;0.50;0.50;;;;;;;6.11;100.00;101801.36;105389;1252;72366;-56
2024/02/14 04:39:46;;;;;;;0.60;0.60;;;;;;;6.09;100.00;101807.77;105320;1254;65920;-54
2024/02/14 04:42:15;;;;;;;0.60;0.60;;;;;;;6.08;100.00;101793.50;105559;1254;71634;-54
2024/02/14 04:44:43;;;;;;;0.80;0.60;;;;;;;6.08;100.00;101792.96;105143;1255;60497;-56
2024/02/14 04:47:11;;;;;;;0.70;0.60;;;;;;;6.06;100.00;101784.93;105466;1253;59995;-54
2024/02/14 04:49:38;;;;;;;0.50;0.50;;;;;;;6.03;100.00;101780.48;105276;1257;73106;-53
2024/02/14 04:52:07;;;;;;;0.50;0.40;;;;;;;5.99;100.00;101775.84;105209;1252;66990;-56
2024/02/14 04:54:35;;;;;;;0.60;0.60;;;;;;;5.98;100.00;101770.48;105183;1256;72762;-55
2024/02/14 04:57:04;;;;;;;0.50;0.50;;;;;;;5.97;100.00;101768.69;105174;1253;61295;-54
2024/02/14 04:59:32;;;;;;;0.60;0.50;;;;;;;5.96;100.00;101775.11;105457;1253;60038;-54
2024/02/14 05:02:02;;;;;;;0.50;0.50;;;;;;;5.94;100.00;101772.98;105020;1253;72309;-54
2024/02/14 05:04:31;;;;;;;0.50;0.50;;;;;;;5.92;100.00;101770.48;105187;1257;66146;-54
2024/02/14 05:07:01;;;;;;;0.60;0.50;;;;;;;5.88;100.00;101767.41;105132;1254;70414;-55
2024/02/14 05:09:28;;;;;;;0.70;0.50;;;;;;;5.83;100.00;101761.69;105279;1253;61795;-55
2024/02/14 05:11:56;;;;;;;0.50;0.50;;;;;;;5.80;100.00;101757.38;105197;1257;59609;-56
2024/02/14 05:14:24;;;;;;;0.60;0.50;;;;;;;5.78;100.00;101756.67;104939;1253;74448;-56
2024/02/14 05:16:51;;;;;;;0.50;0.50;;;;;;;5.75;100.00;101749.55;105244;1253;66915;-54
2024/02/14 05:19:21;;;;;;;0.50;0.50;;;;;;;5.74;100.00;101747.40;105354;1254;71272;-56
2024/02/14 05:21:49;;;;;;;1.40;0.50;;;;;;;5.73;100.00;101749.70;105320;1257;61666;-56
2024/02/14 05:24:16;;;;;;;0.70;0.60;;;;;;;5.72;100.00;101742.39;105266;1253;59516;-55
2024/02/14 05:26:44;;;;;;;2.20;0.50;;;;;;;5.71;100.00;101741.50;105109;1257;71879;-54
2024/02/14 05:29:11;;;;;;;0.70;0.70;;;;;;;5.72;100.00;101741.86;105189;1253;66463;-54
2024/02/14 05:31:44;;;;;;;0.80;0.70;;;;;;;5.73;100.00;101745.07;105721;1253;72942;-55
2024/02/14 05:34:11;;;;;;;0.60;0.60;;;;;;;5.75;100.00;101757.20;105177;1253;62099;-54
2024/02/14 05:36:39;;;;;;;0.60;0.50;;;;;;;5.75;100.00;101753.29;105143;1253;59965;-55
2024/02/14 05:39:07;;;;;;;1.90;0.50;;;;;;;5.76;100.00;101759.70;105038;1257;73314;-55
2024/02/14 05:41:35;;;;;;;0.70;0.50;;;;;;;5.75;100.00;101765.58;105311;1257;64513;-54
2024/02/14 05:44:03;;;;;;;1.20;0.60;;;;;;;5.73;100.00;101766.80;105157;1253;72938;-55
2024/02/14 05:46:31;;;;;;;1.00;0.60;;;;;;;5.70;100.00;101770.70;104977;1253;60467;-57
2024/02/14 05:48:59;;;;;;;0.70;0.60;;;;;;;5.72;100.00;101777.67;105180;1257;59581;-53
2024/02/14 05:51:26;;;;;;;0.80;0.70;;;;;;;5.75;100.00;101784.64;105243;1257;73087;-55
2024/02/14 05:53:53;;;;;;;2.20;0.60;;;;;;;5.76;100.00;101787.84;105172;1256;66729;-54
2024/02/14 05:56:21;;;;;;;1.20;0.50;;;;;;;5.78;100.00;101790.18;105192;1253;73615;-56
2024/02/14 05:58:48;;;;;;;0.80;0.50;;;;;;;5.78;100.00;101789.46;105126;1252;61927;-54
2024/02/14 06:01:16;;;;;;;0.60;0.50;;;;;;;5.78;100.00;101790.54;104936;1260;59721;-53
2024/02/14 06:03:43;;;;;;;0.50;0.50;;;;;;;5.77;100.00;101791.95;105091;1254;71755;-53
2024/02/14 06:06:11;;;;;;;1.00;0.40;;;;;;;5.72;100.00;101787.83;105144;1259;66919;-54
2024/02/14 06:08:39;;;;;;;3.60;0.50;;;;;;;5.65;100.00;101785.48;105178;1257;72710;-53
2024/02/14 06:11:06;;;;;;;0.40;0.40;;;;;;;5.58;100.00;101781.90;105256;1257;61650;-58
2024/02/14 06:13:35;;;;;;;0.40;0.40;;;;;;;5.53;100.00;101774.92;105132;1253;60704;-54
2024/02/14 06:16:04;;;;;;;0.40;0.40;;;;;;;5.48;100.00;101777.40;105262;1253;73607;-54
2024/02/14 06:18:32;;;;;;;0.60;0.50;;;;;;;5.45;100.00;101767.94;105430;1253;65832;-56
2024/02/14 06:21:01;;;;;;;0.50;0.30;;;;;;;5.40;100.00;101762.59;105199;1259;72762;-54
2024/02/14 06:23:28;;;;;;;0.70;0.50;;;;;;;5.37;100.00;101757.77;105146;1253;62287;-55
2024/02/14 06:25:56;;;;;;;0.40;0.40;;;;;;;5.34;100.00;101755.97;105286;1257;59604;-59
2024/02/14 06:28:23;;;;;;;1.90;0.50;;;;;;;5.31;100.00;101756.66;105176;1253;73341;-55
2024/02/14 06:30:50;;;;;;;0.70;0.50;;;;;;;5.30;100.00;101748.64;105263;1258;66867;-52
2024/02/14 06:33:18;;;;;;;0.60;0.50;;;;;;;5.28;100.00;101744.17;105292;1257;71790;-53
2024/02/14 06:35:45;;;;;;;0.50;0.50;;;;;;;5.26;100.00;101745.79;105197;1257;60628;-54
2024/02/14 06:38:13;;;;;;;1.00;0.60;;;;;;;5.22;100.00;101745.76;105333;1257;59794;-55
2024/02/14 06:40:43;;;;;;;0.70;0.60;;;;;;;5.15;100.00;101740.02;105325;1257;73162;-54
2024/02/14 06:43:12;;;;;;;0.70;0.60;;;;;;;5.12;100.00;101735.38;105517;1258;67304;-53
2024/02/14 06:45:39;;;;;;;0.60;0.50;;;;;;;5.11;100.00;101733.60;105423;1256;72395;-52
2024/02/14 06:48:08;;;;;;;1.00;0.80;;;;;;;5.09;100.00;101731.11;105263;1253;60464;-59
2024/02/14 06:50:35;;;;;;;3.60;0.60;;;;;;;5.04;100.00;101727.32;105427;1253;59652;-54
2024/02/14 06:53:03;;;;;;;1.00;0.70;;;;;;;5.02;100.00;101724.30;105444;1254;72777;-57
2024/02/14 06:55:31;;;;;;;1.20;0.70;;;;;;;5.05;100.00;101727.33;105355;1257;66124;-54
2024/02/14 06:58:00;;;;;;;2.80;0.90;;;;;;;5.05;100.00;101729.65;105513;1259;72708;-55
2024/02/14 07:00:31;;;;;;;1.00;0.80;;;;;;;5.06;100.00;101738.37;105198;1258;60501;-55
2024/02/14 07:02:58;;;;;;;0.90;0.80;;;;;;;5.08;100.00;101737.32;105283;1252;59637;-54
2024/02/14 07:05:27;;;;;;;1.00;0.70;;;;;;;5.10;100.00;101742.84;105188;1257;71458;-54
2024/02/14 07:07:55;;;;;;;1.50;0.80;;;;;;;5.12;100.00;101748.90;105379;1253;67091;-58
2024/02/14 07:10:23;;;;;;;1.10;0.60;;;;;;;5.14;100.00;101748.92;105435;1258;71787;-52
2024/02/14 07:12:50;;;;;;;1.50;0.70;;;;;;;5.13;100.00;101749.63;105275;1254;60645;-52
2024/02/14 07:15:18;;;;;;;0.90;0.60;;;;;;;5.14;100.00;101754.27;105320;1257;59692;-53
2024/02/14 07:17:45;;;;;;;4.00;0.90;;;;;;;5.13;100.00;101758.52;105417;1253;71827;-55
2024/02/14 07:20:13;;;;;;;1.20;0.80;;;;;;;5.12;100.00;101757.44;105798;1256;65236;-52
2024/02/14 07:22:41;;;;;;;1.20;0.70;;;;;;;5.11;100.00;101754.05;105471;1253;72745;-50
2024/02/14 07:25:09;;;;;;;1.50;0.80;;;;;;;5.10;100.00;101748.73;105400;1253;61797;-52
2024/02/14 07:27:37;;;;;;;3.70;0.70;;;;;;;5.13;100.00;101755.48;105316;1258;59627;-50
2024/02/14 07:30:05;;;;;;;1.60;0.80;;;;;;;5.14;100.00;101753.55;105181;1253;73104;-55
2024/02/14 07:32:33;;;;;;;2.60;0.80;;;;;;;5.12;100.00;101757.27;105238;1253;65531;-53
2024/02/14 07:35:02;;;;;;;2.20;0.60;;;;;;;5.10;100.00;101757.79;105252;1258;73144;-54
2024/02/14 07:37:30;;;;;;;1.90;1.00;;;;;;;5.05;100.00;101755.27;105163;1253;61812;-51
2024/02/14 07:39:58;;;;;;;2.10;1.10;;;;;;;5.02;100.00;101747.79;105334;1257;59679;-53
2024/02/14 07:42:25;;;;;;;2.70;1.40;;;;;;;5.02;100.00;101744.40;105344;1259;73301;-53
2024/02/14 07:44:53;;;;;;;1.90;1.10;;;;;;;5.05;100.00;101746.20;105276;1257;66937;-55
2024/02/14 07:47:21;;;;;;;1.20;0.80;;;;;;;5.07;100.00;101753.15;105262;1259;71479;-53
2024/02/14 07:49:48;;;;;;;0.90;0.60;;;;;;;5.10;100.00;101755.67;105076;1253;59508;-54
2024/02/14 07:52:21;;;;;;;1.10;0.70;;;;;;;5.15;100.00;101758.55;105153;1258;60416;-55
2024/02/14 07:54:55;;;;;;;3.30;0.70;;;;;;;5.21;100.00;101771.73;104921;1253;73885;-53
2024/02/14 07:57:24;;;;;;;1.10;0.80;;;;;;;5.24;100.00;101782.08;105226;1259;65521;-55
2024/02/14 07:59:55;;;;;;;3.10;0.70;;;;;;;5.23;100.00;101777.63;105291;1256;71469;-53
2024/02/14 08:02:22;;;;;;;1.10;0.70;;;;;;;5.19;100.00;101779.74;105157;1253;63848;-55
2024/02/14 08:04:50;;;;;;;1.50;0.80;;;;;;;5.16;100.00;101777.05;105139;1258;60562;-56
2024/02/14 08:07:19;;;;;;;3.20;0.60;;;;;;;5.17;100.00;101788.81;105395;1256;72936;-53
2024/02/14 08:09:47;;;;;;;2.10;0.70;;;;;;;5.19;100.00;101797.89;105250;1258;65072;-52
2024/02/14 08:12:14;;;;;;;1.80;0.60;;;;;;;5.23;100.00;101805.73;105144;1253;72829;-54
2024/02/14 08:14:41;;;;;;;1.20;0.60;;;;;;;5.24;100.00;101806.13;105252;1254;60997;-54
2024/02/14 08:17:09;;;;;;;2.60;0.60;;;;;;;5.25;100.00;101807.20;104976;1253;60306;-55
2024/02/14 08:19:36;;;;;;;0.90;0.60;;;;;;;5.25;100.00;101808.98;105081;1253;72925;-54
2024/02/14 08:22:05;;;;;;;2.20;0.50;;;;;;;5.26;100.00;101816.82;105229;1256;67643;-55
2024/02/14 08:24:33;;;;;;;0.60;0.50;;;;;;;5.25;100.00;101823.39;105079;1253;71532;-55
2024/02/14 08:27:00;;;;;;;0.70;0.40;;;;;;;5.24;100.00;101829.79;105016;1259;60904;-54
2024/02/14 08:29:28;;;;;;;0.90;0.50;;;;;;;5.19;100.00;101834.02;105062;1253;60496;-52
2024/02/14 08:31:56;;;;;;;0.60;0.50;;;;;;;5.18;100.00;101832.61;105401;1257;73682;-54
2024/02/14 08:34:23;;;;;;;0.90;0.40;;;;;;;5.18;100.00;101839.90;105331;1253;67611;-53
2024/02/14 08:36:51;;;;;;;0.70;0.50;;;;;;;5.18;100.00;101840.08;105520;1256;71357;-54
2024/02/14 08:39:19;;;;;;;2.40;0.50;;;;;;;5.16;100.00;101843.09;105140;1258;62301;-54
2024/02/14 08:41:47;;;;;;;0.90;0.40;;;;;;;5.17;100.00;101846.83;105203;1259;60433;-55
2024/02/14 08:44:14;;;;;;;0.90;0.50;;;;;;;5.18;100.00;101849.70;105148;1254;74026;-55
2024/02/14 08:46:44;;;;;;;2.40;0.50;;;;;;;5.18;100.00;101850.41;105420;1253;65573;-57
2024/02/14 08:49:12;;;;;;;0.70;0.50;;;;;;;5.17;100.00;101854.13;105473;1256;71470;-55
2024/02/14 08:51:48;;;;;;;3.90;0.60;;;;;;;5.15;100.00;101854.27;105255;1259;61961;-53
2024/02/14 08:54:16;;;;;;;0.90;0.50;;;;;;;5.14;100.00;101865.48;105180;1253;60767;-53
2024/02/14 08:56:43;;;;;;;3.60;0.60;;;;;;;5.13;100.00;101859.78;105420;1254;73633;-51
2024/02/14 08:59:11;;;;;;;0.70;0.40;;;;;;;5.11;100.00;101861.90;105202;1253;65844;-53
2024/02/14 09:01:38;;;;;;;1.10;0.50;;;;;;;5.10;100.00;101858.54;105154;1255;70724;-54
2024/02/14 09:04:05;;;;;;;0.90;0.40;;;;;;;5.09;100.00;101852.47;105379;1258;60846;-53
2024/02/14 09:06:33;;;;;;;1.00;0.50;;;;;;;5.09;100.00;101856.04;105334;1253;61510;-57
2024/02/14 09:09:01;;;;;;;1.00;0.50;;;;;;;5.10;100.00;101859.23;105275;1252;73943;-55
2024/02/14 09:11:29;;;;;;;2.90;0.40;;;;;;;5.12;100.00;101861.55;105218;1253;65256;-55
2024/02/14 09:14:02;;;;;;;0.90;0.50;;;;;;;5.14;100.00;101864.23;105232;1253;71873;-55
2024/02/14 09:16:31;;;;;;;1.70;0.50;;;;;;;5.15;100.00;101869.77;105298;1253;60758;-53
2024/02/14 09:19:01;;;;;;;1.60;0.40;;;;;;;5.17;100.00;101869.80;105469;1253;60582;-53
2024/02/14 09:21:29;;;;;;;4.30;0.60;;;;;;;5.18;100.00;101868.02;105113;1258;73926;-55
2024/02/14 09:23:57;;;;;;;1.30;0.50;;;;;;;5.15;100.00;101865.69;105233;1258;68014;-53
2024/02/14 09:26:26;;;;;;;0.90;0.50;;;;;;;5.10;100.00;101865.30;105201;1258;73182;-52
2024/02/14 09:28:54;;;;;;;0.90;0.60;;;;;;;5.08;100.00;101862.77;105236;1253;60554;-54
2024/02/14 09:31:22;;;;;;;10.20;0.50;;;;;;;5.08;100.00;101864.57;105237;1254;60671;-54
2024/02/14 09:33:49;;;;;;;0.90;0.50;;;;;;;5.09;100.00;101865.82;105298;1253;73949;-53
2024/02/14 09:36:18;;;;;;;1.10;0.50;;;;;;;5.08;100.00;101865.81;105421;1257;69327;-54
2024/02/14 09:38:46;;;;;;;0.60;0.30;;;;;;;5.06;100.00;101868.09;105361;1253;72690;-56
2024/02/14 09:41:40;;;;;;;1.10;0.50;;;;;;;5.03;100.00;101865.75;105327;1253;61761;-53
2024/02/14 09:44:08;;;;;;;0.90;0.50;;;;;;;5.02;100.00;101893.69;105474;1256;60957;-54
2024/02/14 09:46:37;;;;;;;0.60;0.30;;;;;;;5.02;100.00;101876.07;105140;1253;71787;-52
2024/02/14 09:49:05;;;;;;;1.20;0.40;;;;;;;5.01;100.00;101870.02;105251;1253;67302;-53
2024/02/14 09:51:34;;;;;;;0.70;0.40;;;;;;;4.99;100.00;101870.90;105197;1257;71450;-53
2024/02/14 09:54:02;;;;;;;0.90;0.50;;;;;;;5.01;100.00;101867.19;105047;1254;62636;-52
2024/02/14 09:56:31;;;;;;;1.30;0.50;;;;;;;5.05;100.00;101867.36;105154;1259;60449;-55
2024/02/14 09:59:00;;;;;;;1.10;0.60;;;;;;;5.08;100.00;101870.80;104986;1258;72827;-56
2024/02/14 10:01:28;;;;;;;1.20;0.70;;;;;;;5.08;100.00;101872.04;104972;1258;65750;-55
2024/02/14 10:03:55;;;;;;;1.10;0.60;;;;;;;5.05;100.00;101871.29;105063;1254;71161;-58
2024/02/14 10:06:26;;;;;;;1.10;0.70;;;;;;;5.01;100.00;101866.46;105142;1254;60602;-54
2024/02/14 10:08:54;;;;;;;1.00;0.60;;;;;;;4.97;100.00;101869.98;105141;1253;61822;-56
2024/02/14 10:11:31;;;;;;;0.90;0.60;;;;;;;4.93;100.00;101876.55;105064;1259;74067;-53
2024/02/14 10:14:02;;;;;;;0.90;0.60;;;;;;;4.93;100.00;101869.95;105407;1259;65970;-54
2024/02/14 10:16:32;;;;;;;1.40;0.70;;;;;;;4.95;100.00;101870.67;105259;1253;71431;-56
2024/02/14 10:19:00;;;;;;;1.40;0.60;;;;;;;5.00;100.00;101870.02;105168;1253;63776;-54
2024/02/14 10:21:28;;;;;;;2.00;0.60;;;;;;;5.00;100.00;101875.00;105193;1258;60595;-54
2024/02/14 10:24:02;;;;;;;3.50;0.70;;;;;;;4.99;100.00;101875.88;105273;1253;71671;-54
2024/02/14 10:26:32;;;;;;;1.50;0.80;;;;;;;4.97;100.00;101882.79;105268;1253;67608;-55
2024/02/14 10:29:00;;;;;;;2.10;0.70;;;;;;;4.98;100.00;101875.33;105217;1253;70720;-54
2024/02/14 10:31:28;;;;;;;1.70;0.80;;;;;;;4.97;100.00;101869.27;105123;1258;61736;-56
2024/02/14 10:33:56;;;;;;;1.20;0.60;;;;;;;4.92;100.00;101869.24;105252;1253;60525;-53
2024/02/14 10:36:24;;;;;;;1.70;0.90;;;;;;;4.88;100.00;101865.29;105455;1253;74125;-53
2024/02/14 10:38:51;;;;;;;2.30;0.70;;;;;;;4.87;100.00;101859.04;105339;1253;67217;-54
2024/02/14 10:41:19;;;;;;;1.70;0.80;;;;;;;4.86;100.00;101858.67;105480;1253;73144;-54
2024/02/14 10:43:50;;;;;;;1.70;0.80;;;;;;;4.87;100.00;101857.09;105242;1253;62218;-52
2024/02/14 10:46:22;;;;;;;2.20;0.90;;;;;;;4.86;100.00;101852.80;105564;1258;61472;-54
2024/02/14 10:48:55;;;;;;;1.70;0.70;;;;;;;4.85;100.00;101851.73;105288;1257;74026;-52
2024/02/14 10:51:23;;;;;;;1.10;0.50;;;;;;;4.84;100.00;101856.36;105247;1258;67132;-54
2024/02/14 10:53:51;;;;;;;1.00;0.60;;;;;;;4.82;100.00;101853.51;105057;1253;73243;-53
2024/02/14 10:56:22;;;;;;;1.70;0.60;;;;;;;4.81;100.00;101851.36;105149;1253;61654;-54
2024/02/14 10:58:50;;;;;;;1.00;0.60;;;;;;;4.82;100.00;101856.70;105415;1253;60509;-55
2024/02/14 11:01:17;;;;;;;1.60;0.60;;;;;;;4.84;100.00;101853.16;105107;1260;75752;-54
2024/02/14 11:03:46;;;;;;;1.40;0.60;;;;;;;4.87;100.00;101851.02;105177;1261;65688;-53
2024/02/14 11:06:17;;;;;;;1.90;0.70;;;;;;;4.88;100.00;101855.31;105097;1253;72906;-55
2024/02/14 11:08:58;;;;;;;1.30;0.60;;;;;;;4.86;100.00;101860.83;105146;1254;60625;-53
2024/02/14 11:11:30;;;;;;;3.30;0.70;;;;;;;4.84;100.00;101871.66;105512;1254;60373;-56
2024/02/14 11:13:58;;;;;;;1.50;0.70;;;;;;;4.83;100.00;101862.59;105456;1254;73924;-54
2024/02/14 11:16:29;;;;;;;2.10;0.80;;;;;;;4.83;100.00;101857.60;105181;1254;67119;-53
2024/02/14 11:19:09;;;;;;;1.80;0.80;;;;;;;4.80;100.00;101859.88;105194;1260;75341;-53
2024/02/14 11:21:46;;;;;;;2.30;0.70;;;;;;;4.80;100.00;101864.33;105044;1253;61773;-52